sensor_id;sensor_type;location;lat;lon;timestamp;temperature;humidity
5164;DHT22;2601;50.224;10.126;2022-07-03T13:05:41;35.70;37.20
5164;DHT22;2601;50.224;10.126;2022-07-03T13:08:07;35.30;37.10
5164;DHT22;2601;50.224;10.126;2022-07-03T13:10:33;35.20;35.80
5164;DHT22;2601;50.224;10.126;2022-07-03T13:12:59;35.20;36.30
5164;DHT22;2601;50.224;10.126;2022-07-03T13:15:27;35.00;36.70
5164;DHT22;2601;50.224;10.126;2022-07-03T13:20:28;34.80;38.00
5164;DHT22;2601;50.224;10.126;2022-07-03T13:23:04;35.20;37.60
5164;DHT22;2601;50.224;10.126;2022-07-03T13:25:31;34.10;37.60
5164;DHT22;2601;50.224;10.126;2022-07-03T13:28:13;32.10;40.40
5164;DHT22;2601;50.224;10.126;2022-07-03T13:30:41;31.20;41.80
5164;DHT22;2601;50.224;10.126;2022-07-03T13:33:07;31.40;42.20
5164;DHT22;2601;50.224;10.126;2022-07-03T13:35:34;33.20;40.60
5164;DHT22;2601;50.224;10.126;2022-07-03T13:37:59;34.10;38.50
5164;DHT22;2601;50.224;10.126;2022-07-03T13:40:25;34.70;38.30
5164;DHT22;2601;50.224;10.126;2022-07-03T13:42:51;34.40;38.00
5164;DHT22;2601;50.224;10.126;2022-07-03T13:45:17;33.80;38.60
5164;DHT22;2601;50.224;10.126;2022-07-03T13:47:43;34.60;37.60
5164;DHT22;2601;50.224;10.126;2022-07-03T13:50:09;35.00;37.60
5164;DHT22;2601;50.224;10.126;2022-07-03T13:52:35;35.10;37.20
5164;DHT22;2601;50.224;10.126;2022-07-03T13:55:02;35.10;37.10
5164;DHT22;2601;50.224;10.126;2022-07-03T13:57:27;35.80;37.20
5164;DHT22;2601;50.224;10.126;2022-07-03T13:59:53;35.70;38.10
5164;DHT22;2601;50.224;10.126;2022-07-03T14:02:19;35.50;37.10
5164;DHT22;2601;50.224;10.126;2022-07-03T14:04:44;35.60;36.60
5164;DHT22;2601;50.224;10.126;2022-07-03T14:07:10;35.30;37.30
5164;DHT22;2601;50.224;10.126;2022-07-03T14:09:36;36.00;37.10
5164;DHT22;2601;50.224;10.126;2022-07-03T14:12:02;37.20;35.30
5164;DHT22;2601;50.224;10.126;2022-07-03T14:14:27;37.60;35.10
5164;DHT22;2601;50.224;10.126;2022-07-03T14:16:53;36.70;34.60
5164;DHT22;2601;50.224;10.126;2022-07-03T14:19:19;36.90;35.00
5164;DHT22;2601;50.224;10.126;2022-07-03T14:21:45;37.70;34.10
5164;DHT22;2601;50.224;10.126;2022-07-03T14:24:11;37.80;34.70
5164;DHT22;2601;50.224;10.126;2022-07-03T14:26:36;36.90;35.00
5164;DHT22;2601;50.224;10.126;2022-07-03T14:29:20;37.20;34.70
5164;DHT22;2601;50.224;10.126;2022-07-03T14:32:05;36.80;35.20
5164;DHT22;2601;50.224;10.126;2022-07-03T14:34:49;36.20;36.20
5164;DHT22;2601;50.224;10.126;2022-07-03T14:37:15;35.70;35.80
5164;DHT22;2601;50.224;10.126;2022-07-03T14:39:47;35.40;36.20
5164;DHT22;2601;50.224;10.126;2022-07-03T14:42:14;35.40;37.90
5164;DHT22;2601;50.224;10.126;2022-07-03T14:44:40;33.50;38.70
5164;DHT22;2601;50.224;10.126;2022-07-03T14:47:06;32.60;40.40
5164;DHT22;2601;50.224;10.126;2022-07-03T14:49:32;32.80;39.60
5164;DHT22;2601;50.224;10.126;2022-07-03T14:52:03;32.20;39.90
5164;DHT22;2601;50.224;10.126;2022-07-03T14:54:29;33.10;40.70
5164;DHT22;2601;50.224;10.126;2022-07-03T14:56:58;33.30;39.80
5164;DHT22;2601;50.224;10.126;2022-07-03T15:02:20;33.40;38.10
5164;DHT22;2601;50.224;10.126;2022-07-03T15:05:08;33.00;38.90
5164;DHT22;2601;50.224;10.126;2022-07-03T15:08:04;33.00;38.80
5164;DHT22;2601;50.224;10.126;2022-07-03T15:10:34;33.20;38.70
5164;DHT22;2601;50.224;10.126;2022-07-03T15:13:02;34.40;38.40
5164;DHT22;2601;50.224;10.126;2022-07-03T15:15:30;35.20;36.60
5164;DHT22;2601;50.224;10.126;2022-07-03T15:17:58;35.40;36.20
5164;DHT22;2601;50.224;10.126;2022-07-03T15:20:34;35.30;35.70
5164;DHT22;2601;50.224;10.126;2022-07-03T15:23:01;35.10;35.80
5164;DHT22;2601;50.224;10.126;2022-07-03T15:25:32;34.40;36.70
5164;DHT22;2601;50.224;10.126;2022-07-03T15:27:58;34.70;37.20
5164;DHT22;2601;50.224;10.126;2022-07-03T15:30:25;34.80;37.20
5164;DHT22;2601;50.224;10.126;2022-07-03T15:32:53;35.70;37.30
5164;DHT22;2601;50.224;10.126;2022-07-03T15:35:20;36.10;35.50
5164;DHT22;2601;50.224;10.126;2022-07-03T15:38:14;35.70;35.80
5164;DHT22;2601;50.224;10.126;2022-07-03T15:40:54;35.90;36.20
5164;DHT22;2601;50.224;10.126;2022-07-03T16:00:15;36.80;33.40
5164;DHT22;2601;50.224;10.126;2022-07-03T16:05:46;35.20;34.00
5164;DHT22;2601;50.224;10.126;2022-07-03T16:08:13;36.00;34.80
5164;DHT22;2601;50.224;10.126;2022-07-03T16:10:40;36.90;34.00
5164;DHT22;2601;50.224;10.126;2022-07-03T16:13:07;37.20;33.30
5164;DHT22;2601;50.224;10.126;2022-07-03T16:15:37;37.60;33.10
5164;DHT22;2601;50.224;10.126;2022-07-03T16:18:03;37.30;33.10
5164;DHT22;2601;50.224;10.126;2022-07-03T16:20:30;36.60;33.60
5164;DHT22;2601;50.224;10.126;2022-07-03T16:23:01;35.80;34.90
5164;DHT22;2601;50.224;10.126;2022-07-03T16:25:30;36.30;34.70
5164;DHT22;2601;50.224;10.126;2022-07-03T16:27:56;36.40;33.90
5164;DHT22;2601;50.224;10.126;2022-07-03T16:30:22;37.00;33.10
5164;DHT22;2601;50.224;10.126;2022-07-03T16:32:49;38.20;32.20
5164;DHT22;2601;50.224;10.126;2022-07-03T16:35:25;37.70;31.60
5164;DHT22;2601;50.224;10.126;2022-07-03T16:37:56;36.90;32.80
5164;DHT22;2601;50.224;10.126;2022-07-03T16:40:25;36.00;33.30
5164;DHT22;2601;50.224;10.126;2022-07-03T16:42:52;36.40;33.30
5164;DHT22;2601;50.224;10.126;2022-07-03T16:45:19;36.40;32.70
5164;DHT22;2601;50.224;10.126;2022-07-03T16:47:48;36.50;32.20
5164;DHT22;2601;50.224;10.126;2022-07-03T16:50:20;35.90;32.40
5164;DHT22;2601;50.224;10.126;2022-07-03T16:52:50;35.70;32.90
5164;DHT22;2601;50.224;10.126;2022-07-03T16:55:17;34.90;33.50
5164;DHT22;2601;50.224;10.126;2022-07-03T16:57:55;34.80;34.00
5164;DHT22;2601;50.224;10.126;2022-07-03T17:00:26;36.50;33.30
5164;DHT22;2601;50.224;10.126;2022-07-03T17:02:53;35.30;33.30
5164;DHT22;2601;50.224;10.126;2022-07-03T17:05:21;35.60;33.00
5164;DHT22;2601;50.224;10.126;2022-07-03T17:07:49;35.80;33.00
5164;DHT22;2601;50.224;10.126;2022-07-03T17:10:17;35.70;33.10
5164;DHT22;2601;50.224;10.126;2022-07-03T17:12:48;35.10;33.80
5164;DHT22;2601;50.224;10.126;2022-07-03T17:15:16;34.50;33.70
5164;DHT22;2601;50.224;10.126;2022-07-03T17:17:45;35.10;33.90
5164;DHT22;2601;50.224;10.126;2022-07-03T17:20:21;34.60;33.70
5164;DHT22;2601;50.224;10.126;2022-07-03T17:22:48;35.10;33.70
5164;DHT22;2601;50.224;10.126;2022-07-03T17:25:35;36.00;33.10
5164;DHT22;2601;50.224;10.126;2022-07-03T17:28:04;37.00;31.30
5164;DHT22;2601;50.224;10.126;2022-07-03T17:33:08;36.40;31.50
5164;DHT22;2601;50.224;10.126;2022-07-03T17:35:37;36.80;31.40
5164;DHT22;2601;50.224;10.126;2022-07-03T17:38:09;36.70;31.50
5164;DHT22;2601;50.224;10.126;2022-07-03T17:40:35;36.00;31.60
5164;DHT22;2601;50.224;10.126;2022-07-03T17:43:02;35.50;33.10
5164;DHT22;2601;50.224;10.126;2022-07-03T17:45:29;36.00;33.00
5164;DHT22;2601;50.224;10.126;2022-07-03T17:47:55;36.20;32.50
5164;DHT22;2601;50.224;10.126;2022-07-03T17:50:23;34.80;33.10
5164;DHT22;2601;50.224;10.126;2022-07-03T17:52:50;34.70;34.00
5164;DHT22;2601;50.224;10.126;2022-07-03T17:55:17;34.90;33.60
5164;DHT22;2601;50.224;10.126;2022-07-03T17:57:43;34.00;34.10
5164;DHT22;2601;50.224;10.126;2022-07-03T18:00:11;34.20;34.60
5164;DHT22;2601;50.224;10.126;2022-07-03T18:02:38;33.40;34.70
5164;DHT22;2601;50.224;10.126;2022-07-03T18:05:05;32.00;36.00
5164;DHT22;2601;50.224;10.126;2022-07-03T18:10:20;29.70;38.90
5164;DHT22;2601;50.224;10.126;2022-07-03T18:15:53;28.70;40.70
5164;DHT22;2601;50.224;10.126;2022-07-03T18:20:55;28.30;41.80
5164;DHT22;2601;50.224;10.126;2022-07-03T18:23:22;28.20;42.20
5164;DHT22;2601;50.224;10.126;2022-07-03T18:25:54;28.10;42.50
5164;DHT22;2601;50.224;10.126;2022-07-03T18:28:22;28.00;42.50
5164;DHT22;2601;50.224;10.126;2022-07-03T18:30:48;27.80;42.40
5164;DHT22;2601;50.224;10.126;2022-07-03T18:33:16;27.80;42.80
5164;DHT22;2601;50.224;10.126;2022-07-03T18:35:43;27.60;42.80
5164;DHT22;2601;50.224;10.126;2022-07-03T18:38:11;27.50;43.00
5164;DHT22;2601;50.224;10.126;2022-07-03T18:40:38;27.40;43.30
5164;DHT22;2601;50.224;10.126;2022-07-03T18:43:05;27.40;43.60
5164;DHT22;2601;50.224;10.126;2022-07-03T18:45:31;27.30;43.80
5164;DHT22;2601;50.224;10.126;2022-07-03T18:47:57;27.20;43.90
5164;DHT22;2601;50.224;10.126;2022-07-03T18:50:26;27.10;44.30
5164;DHT22;2601;50.224;10.126;2022-07-03T18:53:04;27.00;44.70
5164;DHT22;2601;50.224;10.126;2022-07-03T18:55:36;27.00;46.20
5164;DHT22;2601;50.224;10.126;2022-07-03T19:00:48;26.80;46.60
5164;DHT22;2601;50.224;10.126;2022-07-03T19:03:16;26.70;47.60
5164;DHT22;2601;50.224;10.126;2022-07-03T19:05:53;26.50;49.10
5164;DHT22;2601;50.224;10.126;2022-07-03T19:08:28;26.30;48.70
5164;DHT22;2601;50.224;10.126;2022-07-03T19:11:07;26.10;49.90
5164;DHT22;2601;50.224;10.126;2022-07-03T19:13:40;25.90;50.60
5164;DHT22;2601;50.224;10.126;2022-07-03T19:16:14;25.80;49.90
5164;DHT22;2601;50.224;10.126;2022-07-03T19:18:41;25.50;51.80
5164;DHT22;2601;50.224;10.126;2022-07-03T19:21:07;25.30;52.10
5164;DHT22;2601;50.224;10.126;2022-07-03T19:23:33;25.00;52.50
5164;DHT22;2601;50.224;10.126;2022-07-03T19:25:59;24.90;52.10
5164;DHT22;2601;50.224;10.126;2022-07-03T19:28:25;24.70;51.80
5164;DHT22;2601;50.224;10.126;2022-07-03T19:30:52;24.60;52.50
5164;DHT22;2601;50.224;10.126;2022-07-03T19:33:18;24.40;53.20
5164;DHT22;2601;50.224;10.126;2022-07-03T19:35:44;24.30;53.70
5164;DHT22;2601;50.224;10.126;2022-07-03T19:38:10;24.20;54.30
5164;DHT22;2601;50.224;10.126;2022-07-03T19:40:37;24.00;54.80
5164;DHT22;2601;50.224;10.126;2022-07-03T19:43:04;23.80;55.10
5164;DHT22;2601;50.224;10.126;2022-07-03T19:45:30;23.60;55.60
5164;DHT22;2601;50.224;10.126;2022-07-03T19:47:56;23.50;56.30
5164;DHT22;2601;50.224;10.126;2022-07-03T19:50:22;23.40;57.00
5164;DHT22;2601;50.224;10.126;2022-07-03T19:52:47;23.20;56.90
5164;DHT22;2601;50.224;10.126;2022-07-03T19:55:13;23.10;56.90
5164;DHT22;2601;50.224;10.126;2022-07-03T19:57:39;23.10;56.90
5164;DHT22;2601;50.224;10.126;2022-07-03T20:00:06;22.90;56.90
5164;DHT22;2601;50.224;10.126;2022-07-03T20:02:32;22.90;57.90
5164;DHT22;2601;50.224;10.126;2022-07-03T20:04:58;22.60;57.70
5164;DHT22;2601;50.224;10.126;2022-07-03T20:07:24;22.60;58.10
5164;DHT22;2601;50.224;10.126;2022-07-03T20:09:52;22.40;58.30
5164;DHT22;2601;50.224;10.126;2022-07-03T20:12:18;22.40;58.10
5164;DHT22;2601;50.224;10.126;2022-07-03T20:14:44;22.30;58.00
5164;DHT22;2601;50.224;10.126;2022-07-03T20:17:12;22.10;58.30
5164;DHT22;2601;50.224;10.126;2022-07-03T20:19:38;22.00;58.60
5164;DHT22;2601;50.224;10.126;2022-07-03T20:22:04;21.90;58.80
5164;DHT22;2601;50.224;10.126;2022-07-03T20:24:30;21.80;59.30
5164;DHT22;2601;50.224;10.126;2022-07-03T20:27:05;21.70;59.00
5164;DHT22;2601;50.224;10.126;2022-07-03T20:29:34;21.60;59.20
5164;DHT22;2601;50.224;10.126;2022-07-03T20:32:01;21.50;60.70
5164;DHT22;2601;50.224;10.126;2022-07-03T20:34:26;21.50;60.90
5164;DHT22;2601;50.224;10.126;2022-07-03T20:36:53;21.40;60.70
5164;DHT22;2601;50.224;10.126;2022-07-03T20:39:19;21.30;61.10
5164;DHT22;2601;50.224;10.126;2022-07-03T20:41:45;21.20;61.20
5164;DHT22;2601;50.224;10.126;2022-07-03T20:44:11;21.00;61.60
5164;DHT22;2601;50.224;10.126;2022-07-03T20:46:37;21.10;62.40
5164;DHT22;2601;50.224;10.126;2022-07-03T20:49:06;21.10;63.10
5164;DHT22;2601;50.224;10.126;2022-07-03T20:51:31;21.00;63.70
5164;DHT22;2601;50.224;10.126;2022-07-03T20:53:57;20.90;64.10
5164;DHT22;2601;50.224;10.126;2022-07-03T20:56:23;20.90;64.60
5164;DHT22;2601;50.224;10.126;2022-07-03T20:58:48;20.80;65.50
5164;DHT22;2601;50.224;10.126;2022-07-03T21:01:14;20.90;65.30
5164;DHT22;2601;50.224;10.126;2022-07-03T21:03:40;20.70;65.60
5164;DHT22;2601;50.224;10.126;2022-07-03T21:06:05;20.60;67.10
5164;DHT22;2601;50.224;10.126;2022-07-03T21:08:47;20.50;66.90
5164;DHT22;2601;50.224;10.126;2022-07-03T21:11:13;20.60;67.30
5164;DHT22;2601;50.224;10.126;2022-07-03T21:14:19;20.50;67.10
5164;DHT22;2601;50.224;10.126;2022-07-03T21:16:53;20.50;68.00
5164;DHT22;2601;50.224;10.126;2022-07-03T21:19:26;20.30;68.20
5164;DHT22;2601;50.224;10.126;2022-07-03T21:22:04;20.20;70.50
5164;DHT22;2601;50.224;10.126;2022-07-03T21:24:52;20.10;71.70
5164;DHT22;2601;50.224;10.126;2022-07-03T21:28:04;19.90;72.70
5164;DHT22;2601;50.224;10.126;2022-07-03T21:30:29;19.80;73.60
5164;DHT22;2601;50.224;10.126;2022-07-03T21:36:24;19.60;75.80
5164;DHT22;2601;50.224;10.126;2022-07-03T21:42:30;19.40;79.30
5164;DHT22;2601;50.224;10.126;2022-07-03T21:45:37;19.50;80.50
5164;DHT22;2601;50.224;10.126;2022-07-03T21:48:06;19.30;82.90
5164;DHT22;2601;50.224;10.126;2022-07-03T21:50:58;19.30;84.80
5164;DHT22;2601;50.224;10.126;2022-07-03T21:54:13;19.20;87.20
5164;DHT22;2601;50.224;10.126;2022-07-03T21:56:20;19.20;88.80
5164;DHT22;2601;50.224;10.126;2022-07-03T21:58:59;19.10;89.80
5164;DHT22;2601;50.224;10.126;2022-07-03T22:01:34;18.90;90.10
5164;DHT22;2601;50.224;10.126;2022-07-03T22:08:00;18.90;90.50
5164;DHT22;2601;50.224;10.126;2022-07-03T22:11:00;18.80;91.30
5164;DHT22;2601;50.224;10.126;2022-07-03T22:13:55;18.80;91.80
5164;DHT22;2601;50.224;10.126;2022-07-03T22:16:35;18.80;92.30
5164;DHT22;2601;50.224;10.126;2022-07-03T22:19:17;18.70;93.20
5164;DHT22;2601;50.224;10.126;2022-07-03T22:25:58;18.50;94.10
5164;DHT22;2601;50.224;10.126;2022-07-03T22:28:35;18.50;94.10
5164;DHT22;2601;50.224;10.126;2022-07-03T22:31:51;18.30;94.70
5164;DHT22;2601;50.224;10.126;2022-07-03T22:34:35;18.20;95.40
5164;DHT22;2601;50.224;10.126;2022-07-03T22:37:24;18.20;95.60
5164;DHT22;2601;50.224;10.126;2022-07-03T22:40:06;17.90;96.80
5164;DHT22;2601;50.224;10.126;2022-07-03T22:46:20;17.80;97.50
5164;DHT22;2601;50.224;10.126;2022-07-03T22:52:40;17.80;98.00
5164;DHT22;2601;50.224;10.126;2022-07-03T22:58:48;17.90;98.60
5164;DHT22;2601;50.224;10.126;2022-07-03T23:08:28;17.60;99.90
5164;DHT22;2601;50.224;10.126;2022-07-03T23:11:35;17.50;99.90
5164;DHT22;2601;50.224;10.126;2022-07-03T23:14:28;17.60;99.90
5164;DHT22;2601;50.224;10.126;2022-07-03T23:17:09;17.70;99.90
5164;DHT22;2601;50.224;10.126;2022-07-03T23:24:02;17.80;99.90
5164;DHT22;2601;50.224;10.126;2022-07-03T23:26:31;17.80;99.90
5164;DHT22;2601;50.224;10.126;2022-07-03T23:29:30;17.60;99.90
5164;DHT22;2601;50.224;10.126;2022-07-03T23:32:11;17.40;99.90
5164;DHT22;2601;50.224;10.126;2022-07-03T23:38:52;17.30;99.90
5164;DHT22;2601;50.224;10.126;2022-07-03T23:41:28;17.40;99.90
5164;DHT22;2601;50.224;10.126;2022-07-03T23:44:04;17.40;99.90
5164;DHT22;2601;50.224;10.126;2022-07-03T23:49:38;17.30;99.90
5164;DHT22;2601;50.224;10.126;2022-07-03T23:53:04;17.20;99.90
5164;DHT22;2601;50.224;10.126;2022-07-03T23:55:37;17.20;99.90
5164;DHT22;2601;50.224;10.126;2022-07-03T23:58:10;17.20;99.90
